Catawba Heights, North Carolina
Current Conditions -  °F | °C
As of 6:52 AM on Monday 26 Jan 2015 (Local Time) from KCLT Reporting Station
Scattered Clouds Scattered Clouds  
Wind Chill:   Ceiling: Unl
Heat Index:   Visibility: 10mi
Dew Point:   Wind: 5mph
Humidity: 73%   Direction: 150°SSE
Pressure: 29.64"   Gusts: NA
Location:  35.2342°N, 81.041°W
Report Text: KCLT 261152Z 15004KT 10SM SCT085 04/00 A2964 RMK AO2 SLP037 60000 T00440000 10072 20039 56004 $
Loading
Personal Weather Stations






























Interactive Weather Map New forecast layout! Learn more

10-Day Weather Forecast

Advertisements
Track Severe Weather on mobile